createdAt,value
2023-05-04T00:01:01.628Z,2.70
2023-05-04T00:03:29.502Z,2.87
2023-05-04T00:05:57.331Z,2.30
2023-05-04T00:08:24.897Z,2.40
2023-05-04T00:10:52.404Z,2.00
2023-05-04T00:13:20.088Z,1.80
2023-05-04T00:15:48.070Z,2.23
2023-05-04T00:18:15.385Z,3.00
2023-05-04T00:20:42.688Z,3.13
2023-05-04T00:23:10.427Z,2.50
2023-05-04T00:25:38.255Z,1.83
2023-05-04T00:28:05.908Z,2.43
2023-05-04T00:30:34.120Z,2.97
2023-05-04T00:33:02.709Z,2.20
2023-05-04T00:35:32.068Z,2.43
2023-05-04T00:40:43.966Z,3.00
2023-05-04T00:43:11.706Z,3.57
2023-05-04T00:45:39.315Z,4.50
2023-05-04T00:48:08.170Z,4.67
2023-05-04T00:50:36.256Z,6.80
2023-05-04T00:53:09.916Z,6.30
2023-05-04T00:55:42.025Z,5.97
2023-05-04T00:58:11.757Z,6.53
2023-05-04T01:00:39.292Z,6.00
2023-05-04T01:03:06.975Z,5.50
2023-05-04T01:05:37.273Z,7.10
2023-05-04T01:08:11.066Z,6.20
2023-05-04T01:10:46.145Z,5.40
2023-05-04T01:13:15.849Z,6.03
2023-05-04T01:15:43.490Z,4.87
2023-05-04T01:18:30.577Z,5.23
2023-05-04T01:21:03.074Z,4.50
2023-05-04T01:23:31.810Z,4.50
2023-05-04T01:26:08.027Z,4.73
2023-05-04T01:28:55.757Z,3.70
2023-05-04T01:31:24.320Z,3.87
2023-05-04T01:33:58.072Z,3.83
2023-05-04T01:36:34.931Z,3.07
2023-05-04T01:39:04.016Z,3.23
2023-05-04T01:44:19.961Z,3.27
2023-05-04T01:46:53.925Z,3.30
2023-05-04T01:49:22.079Z,2.90
2023-05-04T01:51:54.024Z,2.40
2023-05-04T01:54:21.733Z,2.83
2023-05-04T01:56:49.406Z,2.83
2023-05-04T01:59:17.225Z,2.33
2023-05-04T02:01:45.293Z,3.17
2023-05-04T02:04:13.407Z,3.37
2023-05-04T02:06:40.901Z,3.83
2023-05-04T02:09:09.247Z,4.13
2023-05-04T02:11:36.885Z,4.10
2023-05-04T02:14:05.183Z,4.03
2023-05-04T02:16:32.971Z,4.53
2023-05-04T02:19:00.675Z,3.93
2023-05-04T02:21:28.234Z,5.00
2023-05-04T02:23:56.848Z,4.60
2023-05-04T02:26:24.394Z,3.87
2023-05-04T02:28:52.532Z,4.40
2023-05-04T02:31:20.051Z,2.50
2023-05-04T02:33:48.919Z,3.77
2023-05-04T02:36:16.480Z,4.50
2023-05-04T02:38:45.416Z,3.30
2023-05-04T02:41:12.705Z,3.83
2023-05-04T02:43:40.206Z,2.60
2023-05-04T02:46:08.503Z,2.70
2023-05-04T02:48:35.825Z,2.73
2023-05-04T02:51:03.651Z,2.70
2023-05-04T02:53:33.216Z,3.70
2023-05-04T02:56:00.657Z,3.37
2023-05-04T02:58:28.073Z,3.87
2023-05-04T03:00:58.609Z,3.60
2023-05-04T03:03:25.982Z,3.17
2023-05-04T03:05:53.344Z,3.23
2023-05-04T03:08:21.444Z,3.30
2023-05-04T03:10:48.820Z,3.27
2023-05-04T03:13:18.232Z,3.17
2023-05-04T03:15:45.970Z,4.37
2023-05-04T03:18:13.504Z,3.67
2023-05-04T03:20:41.849Z,3.57
2023-05-04T03:23:09.548Z,3.40
2023-05-04T03:25:38.366Z,3.50
2023-05-04T03:28:06.317Z,3.30
2023-05-04T03:30:34.378Z,3.40
2023-05-04T03:33:02.636Z,2.80
2023-05-04T03:35:30.199Z,2.60
2023-05-04T03:37:58.217Z,2.83
2023-05-04T03:40:25.881Z,3.33
2023-05-04T03:42:55.573Z,3.20
2023-05-04T03:45:24.030Z,2.87
2023-05-04T03:47:51.565Z,3.10
2023-05-04T03:50:19.249Z,3.43
2023-05-04T03:52:47.096Z,3.30
2023-05-04T03:55:15.035Z,2.50
2023-05-04T03:57:42.411Z,2.70
2023-05-04T04:00:11.718Z,3.10
2023-05-04T04:02:39.468Z,2.67
2023-05-04T04:05:11.065Z,3.40
2023-05-04T04:07:39.504Z,2.77
2023-05-04T04:10:09.892Z,3.73
2023-05-04T04:12:37.296Z,3.20
2023-05-04T04:15:05.306Z,3.20
2023-05-04T04:17:32.844Z,2.80
2023-05-04T04:20:02.831Z,2.63
2023-05-04T04:22:30.566Z,3.80
2023-05-04T04:24:57.948Z,3.20
2023-05-04T04:27:25.696Z,3.03
2023-05-04T04:29:53.110Z,3.50
2023-05-04T04:32:22.043Z,2.77
2023-05-04T04:34:49.557Z,3.23
2023-05-04T04:37:17.098Z,2.83
2023-05-04T04:39:44.932Z,2.73
2023-05-04T04:42:14.297Z,2.97
2023-05-04T04:44:42.154Z,2.77
2023-05-04T04:47:09.824Z,2.57
2023-05-04T04:49:37.551Z,2.60
2023-05-04T04:52:05.699Z,2.60
2023-05-04T04:54:33.102Z,3.00
2023-05-04T04:57:00.602Z,2.37
2023-05-04T04:59:29.099Z,3.17
2023-05-04T05:01:59.100Z,2.80
2023-05-04T05:04:28.202Z,2.13
2023-05-04T05:06:56.271Z,2.83
2023-05-04T05:09:24.697Z,3.20
2023-05-04T05:11:52.269Z,2.80
2023-05-04T05:14:20.227Z,3.27
2023-05-04T05:16:47.776Z,3.10
2023-05-04T05:19:16.030Z,3.17
2023-05-04T05:21:44.471Z,2.90
2023-05-04T05:24:11.915Z,3.80
2023-05-04T05:26:39.971Z,2.83
2023-05-04T05:29:07.502Z,3.47
2023-05-04T05:31:35.421Z,4.40
2023-05-04T05:34:05.289Z,4.17
2023-05-04T05:36:35.285Z,3.90
2023-05-04T05:39:02.930Z,4.13
2023-05-04T05:41:30.354Z,4.00
2023-05-04T05:43:58.495Z,3.23
2023-05-04T05:46:25.956Z,3.23
2023-05-04T05:48:53.608Z,3.90
2023-05-04T05:51:22.124Z,3.60
2023-05-04T05:53:53.504Z,3.07
2023-05-04T05:56:21.062Z,3.73
2023-05-04T05:58:48.595Z,3.57
2023-05-04T06:01:19.503Z,3.00
2023-05-04T06:03:47.466Z,3.20
2023-05-04T06:06:16.167Z,3.87
2023-05-04T06:08:43.882Z,3.53
2023-05-04T06:11:13.146Z,5.07
2023-05-04T06:13:41.095Z,6.30
2023-05-04T06:16:08.814Z,6.50
2023-05-04T06:18:37.125Z,4.90
2023-05-04T06:21:05.315Z,5.47
2023-05-04T06:23:35.466Z,5.03
2023-05-04T06:26:06.269Z,3.70
2023-05-04T06:28:35.185Z,5.10
2023-05-04T06:31:02.973Z,6.20
2023-05-04T06:33:50.383Z,5.50
2023-05-04T06:36:17.986Z,4.77
2023-05-04T06:38:46.011Z,5.70
2023-05-04T06:44:01.482Z,5.97
2023-05-04T06:46:36.018Z,5.07
2023-05-04T06:49:04.946Z,4.67
2023-05-04T06:51:32.744Z,5.60
2023-05-04T06:54:01.872Z,4.67
2023-05-04T06:56:29.506Z,4.83
2023-05-04T06:58:57.083Z,6.33
2023-05-04T07:01:25.360Z,4.80
2023-05-04T07:03:53.009Z,6.10
2023-05-04T07:06:21.802Z,4.23
2023-05-04T07:08:49.670Z,6.00
2023-05-04T07:11:17.272Z,5.60
2023-05-04T07:13:46.372Z,7.07
2023-05-04T07:16:16.628Z,6.23
2023-05-04T07:18:48.431Z,5.20
2023-05-04T07:21:27.852Z,5.80
2023-05-04T07:24:22.707Z,4.73
2023-05-04T07:26:51.642Z,4.97
2023-05-04T07:29:19.442Z,4.97
2023-05-04T07:31:46.916Z,4.20
2023-05-04T07:34:17.632Z,4.10
2023-05-04T07:36:48.181Z,3.90
2023-05-04T07:39:19.359Z,2.13
2023-05-04T07:41:50.565Z,2.53
2023-05-04T07:44:22.821Z,3.50
2023-05-04T07:46:50.502Z,2.50
2023-05-04T07:49:18.515Z,2.40
2023-05-04T07:51:46.477Z,1.83
2023-05-04T07:58:01.621Z,1.77
2023-05-04T08:00:29.518Z,2.53
2023-05-04T08:02:57.622Z,1.30
2023-05-04T08:05:25.328Z,2.33
2023-05-04T08:07:57.193Z,1.30
2023-05-04T08:10:25.209Z,1.53
2023-05-04T08:12:52.886Z,1.90
2023-05-04T08:15:26.113Z,1.83
2023-05-04T08:17:55.951Z,1.23
2023-05-04T08:20:24.492Z,1.50
2023-05-04T08:22:55.123Z,1.60
2023-05-04T08:25:29.032Z,1.70
2023-05-04T08:27:57.573Z,1.60
2023-05-04T08:30:48.448Z,1.50
2023-05-04T08:33:18.161Z,1.90
2023-05-04T08:35:46.434Z,1.70
2023-05-04T08:38:19.665Z,2.00
2023-05-04T08:40:49.248Z,1.33
2023-05-04T08:43:18.349Z,1.80
2023-05-04T08:45:46.129Z,1.20
2023-05-04T08:48:15.053Z,1.40
2023-05-04T08:50:50.514Z,1.43
2023-05-04T08:53:22.549Z,1.47
2023-05-04T08:55:51.165Z,1.13
2023-05-04T08:58:20.041Z,1.47
2023-05-04T09:00:47.990Z,1.40
2023-05-04T09:48:39.767Z,3.70
2023-05-04T09:51:07.999Z,2.83
2023-05-04T09:53:35.594Z,1.33
2023-05-04T09:56:12.341Z,1.27
2023-05-04T09:58:41.873Z,1.30
2023-05-04T10:01:27.244Z,2.33
2023-05-04T10:03:56.680Z,1.30
2023-05-04T10:09:17.594Z,1.23
2023-05-04T10:11:50.629Z,1.63
2023-05-04T10:14:23.915Z,1.63
2023-05-04T10:17:15.549Z,1.90
2023-05-04T10:20:23.932Z,1.07
2023-05-04T11:06:23.738Z,1.23
2023-05-04T11:09:02.744Z,1.87
2023-05-04T11:11:32.184Z,1.50
2023-05-04T11:13:59.892Z,1.47
2023-05-04T11:16:27.992Z,1.53
2023-05-04T11:18:56.737Z,1.57
2023-05-04T11:21:29.021Z,0.93
2023-05-04T11:24:00.438Z,1.03
2023-05-04T11:26:29.920Z,0.80
2023-05-04T11:28:57.803Z,1.10
2023-05-04T11:31:25.439Z,1.07
2023-05-04T11:33:55.862Z,0.93
2023-05-04T11:36:23.681Z,1.40
2023-05-04T11:38:51.528Z,1.60
2023-05-04T11:41:19.326Z,1.00
2023-05-04T11:43:47.265Z,1.47
2023-05-04T11:46:15.446Z,1.07
2023-05-04T11:48:50.627Z,1.37
2023-05-04T11:51:18.342Z,1.40
2023-05-04T11:53:46.599Z,1.37
2023-05-04T11:56:14.373Z,1.50
2023-05-04T11:58:42.006Z,1.37
2023-05-04T12:01:11.132Z,0.83
2023-05-04T12:03:53.139Z,1.30
2023-05-04T12:06:34.178Z,1.03
2023-05-04T12:09:07.616Z,1.50
2023-05-04T12:11:36.273Z,1.50
2023-05-04T12:14:10.295Z,0.80
2023-05-04T12:16:38.726Z,0.93
2023-05-04T12:19:11.585Z,1.10
2023-05-04T12:21:50.510Z,1.40
2023-05-04T12:24:18.150Z,1.20
2023-05-04T12:26:46.516Z,1.20
2023-05-04T12:29:14.208Z,0.90
2023-05-04T12:31:41.815Z,1.17
2023-05-04T12:34:09.369Z,1.10
2023-05-04T12:36:37.015Z,0.93
2023-05-04T12:39:05.066Z,0.83
2023-05-04T12:41:33.161Z,1.07
2023-05-04T12:44:01.388Z,1.27
2023-05-04T12:46:29.065Z,1.30
2023-05-04T12:48:57.050Z,0.67
2023-05-04T12:51:26.008Z,1.00
2023-05-04T12:53:53.289Z,1.17
2023-05-04T12:56:20.707Z,1.07
2023-05-04T12:58:48.289Z,0.80
2023-05-04T13:01:15.586Z,1.13
2023-05-04T13:03:46.298Z,1.30
2023-05-04T13:06:13.753Z,1.30
2023-05-04T13:08:41.321Z,1.50
2023-05-04T13:11:09.355Z,1.67
2023-05-04T13:13:36.948Z,1.30
2023-05-04T13:16:06.224Z,0.90
2023-05-04T13:18:34.094Z,1.60
2023-05-04T13:21:01.367Z,1.00
2023-05-04T13:23:31.781Z,1.37
2023-05-04T13:25:59.144Z,1.03
2023-05-04T13:28:26.488Z,0.97
2023-05-04T13:30:53.868Z,1.50
2023-05-04T13:33:29.440Z,1.33
2023-05-04T13:35:59.318Z,1.23
2023-05-04T13:38:32.682Z,0.90
2023-05-04T13:41:02.414Z,0.77
2023-05-04T13:43:30.252Z,1.30
2023-05-04T13:45:58.075Z,1.17
2023-05-04T13:48:26.931Z,0.90
2023-05-04T13:50:54.549Z,1.37
2023-05-04T13:53:21.863Z,1.53
2023-05-04T13:55:50.206Z,1.30
2023-05-04T13:58:21.271Z,1.30
2023-05-04T14:00:49.624Z,1.00
2023-05-04T14:03:19.377Z,1.43
2023-05-04T14:05:46.908Z,1.10
2023-05-04T14:08:14.188Z,1.30
2023-05-04T14:10:45.297Z,1.70
2023-05-04T14:13:14.117Z,1.20
2023-05-04T14:15:41.240Z,1.13
2023-05-04T14:18:08.303Z,2.10
2023-05-04T14:20:35.761Z,1.13
2023-05-04T14:23:03.656Z,1.03
2023-05-04T14:25:31.144Z,1.30
2023-05-04T14:27:58.199Z,1.40
2023-05-04T14:30:27.774Z,1.40
2023-05-04T14:32:55.985Z,1.20
2023-05-04T14:35:23.274Z,1.60
2023-05-04T14:41:53.174Z,1.00
2023-05-04T14:44:21.414Z,1.87
2023-05-04T14:46:48.788Z,1.53
2023-05-04T14:52:00.964Z,1.73
2023-05-04T14:54:28.658Z,1.17
2023-05-04T14:56:55.781Z,1.63
2023-05-04T14:59:23.307Z,1.20
2023-05-04T15:01:52.958Z,1.60
2023-05-04T15:04:20.463Z,1.30
2023-05-04T15:06:48.056Z,1.67
2023-05-04T15:09:16.225Z,1.40
2023-05-04T15:11:43.424Z,1.30
2023-05-04T15:14:12.033Z,1.23
2023-05-04T15:16:41.105Z,1.33
2023-05-04T15:19:08.146Z,1.80
2023-05-04T15:21:35.444Z,1.00
2023-05-04T15:24:02.631Z,1.43
2023-05-04T15:26:31.604Z,1.10
2023-05-04T15:28:59.542Z,1.40
2023-05-04T15:31:28.979Z,1.60
2023-05-04T15:33:56.434Z,1.53
2023-05-04T15:36:25.616Z,1.17
2023-05-04T15:38:52.838Z,1.20
2023-05-04T15:41:20.085Z,1.30
2023-05-04T15:43:47.383Z,1.30
2023-05-04T15:46:14.480Z,1.53
2023-05-04T15:48:42.085Z,1.30
2023-05-04T15:51:15.976Z,1.27
2023-05-04T15:53:43.274Z,2.07
2023-05-04T15:56:10.997Z,1.57
2023-05-04T15:58:38.283Z,1.10
2023-05-04T16:01:10.721Z,1.43
2023-05-04T16:03:39.611Z,1.10
2023-05-04T16:06:07.253Z,1.80
2023-05-04T16:08:35.312Z,1.57
2023-05-04T16:11:02.905Z,1.57
2023-05-04T16:13:30.146Z,2.10
2023-05-04T16:15:58.348Z,2.10
2023-05-04T16:18:26.845Z,1.40
2023-05-04T16:20:55.138Z,1.73
2023-05-04T16:23:22.358Z,1.50
2023-05-04T16:25:49.718Z,1.63
2023-05-04T16:28:17.504Z,1.87
2023-05-04T16:30:45.820Z,1.20
2023-05-04T16:33:13.736Z,1.57
2023-05-04T16:35:41.231Z,1.30
2023-05-04T16:38:08.344Z,1.43
2023-05-04T16:40:35.654Z,1.70
2023-05-04T16:43:02.843Z,1.33
2023-05-04T16:45:32.709Z,1.50
2023-05-04T16:48:00.334Z,1.50
2023-05-04T16:50:27.597Z,1.60
2023-05-04T16:52:54.773Z,1.67
2023-05-04T16:58:06.786Z,2.10
2023-05-04T17:00:34.751Z,1.30
2023-05-04T17:03:02.375Z,1.43
2023-05-04T17:05:29.934Z,1.90
2023-05-04T17:07:59.007Z,1.70
2023-05-04T17:10:26.445Z,1.30
2023-05-04T17:12:55.208Z,1.70
2023-05-04T17:15:22.553Z,2.10
2023-05-04T17:17:51.098Z,1.30
2023-05-04T17:20:18.648Z,2.10
2023-05-04T17:22:46.093Z,1.93
2023-05-04T17:25:14.190Z,1.73
2023-05-04T17:30:27.025Z,1.27
2023-05-04T17:32:57.786Z,1.70
2023-05-04T17:35:26.431Z,1.50
2023-05-04T17:37:58.748Z,1.70
2023-05-04T17:40:35.299Z,1.40
2023-05-04T17:43:03.653Z,1.53
2023-05-04T17:45:33.977Z,1.50
2023-05-04T17:48:01.229Z,1.70
2023-05-04T17:50:32.762Z,1.63
2023-05-04T17:53:00.182Z,1.43
2023-05-04T17:55:28.223Z,0.80
2023-05-04T17:57:55.617Z,1.20
2023-05-04T18:03:10.766Z,1.53
2023-05-04T18:05:57.207Z,2.07
2023-05-04T18:08:25.025Z,1.40
2023-05-04T18:10:52.779Z,1.47
2023-05-04T18:13:29.737Z,2.60
2023-05-04T18:15:57.167Z,1.50
2023-05-04T18:18:26.045Z,3.30
2023-05-04T18:23:43.163Z,2.00
2023-05-04T18:31:23.846Z,2.27
2023-05-04T18:33:51.177Z,1.70
2023-05-04T18:36:20.095Z,2.23
2023-05-04T18:38:53.281Z,2.33
2023-05-04T18:41:21.357Z,1.70
2023-05-04T18:43:49.113Z,1.93
2023-05-04T18:46:18.967Z,2.07
2023-05-04T18:48:47.567Z,2.00
2023-05-04T18:51:14.721Z,4.23
2023-05-04T18:56:26.427Z,1.93
2023-05-04T18:58:56.923Z,1.93
2023-05-04T19:01:24.560Z,1.77
2023-05-04T19:03:52.131Z,2.13
2023-05-04T19:06:38.263Z,2.10
2023-05-04T19:09:24.103Z,1.90
2023-05-04T19:12:10.564Z,2.47
2023-05-04T19:14:38.077Z,3.13
2023-05-04T19:17:06.697Z,2.07
2023-05-04T19:19:37.157Z,1.83
2023-05-04T19:22:05.316Z,2.20
2023-05-04T19:24:38.197Z,2.03
2023-05-04T19:27:05.753Z,2.00
2023-05-04T19:29:33.138Z,2.10
2023-05-04T19:32:05.694Z,2.37
2023-05-04T19:34:44.437Z,1.93
2023-05-04T19:37:12.445Z,2.70
2023-05-04T19:39:39.509Z,2.23
2023-05-04T19:44:52.356Z,2.47
2023-05-04T19:47:20.087Z,1.87
2023-05-04T19:49:48.102Z,2.10
2023-05-04T19:52:16.068Z,2.60
2023-05-04T19:54:44.704Z,1.60
2023-05-04T19:57:12.061Z,2.67
2023-05-04T19:59:39.486Z,2.70
2023-05-04T20:02:07.711Z,2.00
2023-05-04T20:04:40.568Z,1.90
2023-05-04T20:07:07.823Z,2.57
2023-05-04T20:09:34.893Z,2.57
2023-05-04T20:12:07.083Z,2.60
2023-05-04T20:14:34.855Z,2.97
2023-05-04T20:17:02.723Z,3.33
2023-05-04T20:19:30.390Z,2.10
2023-05-04T20:21:57.613Z,2.77
2023-05-04T20:24:26.241Z,3.10
2023-05-04T20:26:53.547Z,2.90
2023-05-04T20:29:21.966Z,2.70
2023-05-04T20:31:49.872Z,4.13
2023-05-04T20:34:18.985Z,2.60
2023-05-04T20:36:47.420Z,2.00
2023-05-04T20:39:16.393Z,2.93
2023-05-04T20:41:43.721Z,2.70
2023-05-04T20:46:56.411Z,1.83
2023-05-04T20:49:23.586Z,3.10
2023-05-04T20:51:51.073Z,1.63
2023-05-04T20:57:03.489Z,2.47
2023-05-04T20:59:32.010Z,2.60
2023-05-04T21:01:59.010Z,2.70
2023-05-04T21:04:26.206Z,2.53
2023-05-04T21:06:59.186Z,3.50
2023-05-04T21:09:30.497Z,2.77
2023-05-04T21:11:58.907Z,1.97
2023-05-04T21:14:26.426Z,2.70
2023-05-04T21:16:58.032Z,2.13
2023-05-04T22:30:27.751Z,2.33
2023-05-04T22:32:55.674Z,2.30
2023-05-04T22:35:23.143Z,2.83
2023-05-04T22:37:50.570Z,2.03
2023-05-04T22:40:17.791Z,3.07
2023-05-04T22:42:48.003Z,2.90
2023-05-04T22:45:15.535Z,2.77
2023-05-04T22:47:42.915Z,2.87
2023-05-04T22:50:10.967Z,3.03
2023-05-04T22:55:22.692Z,2.03
2023-05-04T22:57:49.913Z,2.13
2023-05-04T23:00:17.205Z,2.63
2023-05-04T23:02:45.075Z,2.13
2023-05-04T23:05:12.304Z,3.00
2023-05-04T23:07:40.033Z,1.87
2023-05-04T23:10:07.908Z,2.27
2023-05-04T23:12:35.469Z,3.27
2023-05-04T23:15:02.758Z,2.40
2023-05-04T23:17:29.952Z,2.30
2023-05-04T23:19:57.279Z,2.40
2023-05-04T23:22:25.528Z,2.40
2023-05-04T23:24:52.602Z,2.10
2023-05-04T23:27:19.957Z,2.80
2023-05-04T23:29:48.342Z,2.53
2023-05-04T23:32:15.681Z,2.40
2023-05-04T23:34:43.771Z,3.03
2023-05-04T23:37:11.332Z,3.33
2023-05-04T23:39:38.799Z,2.97
2023-05-04T23:42:06.608Z,3.03
2023-05-04T23:44:33.755Z,3.23
2023-05-04T23:47:01.204Z,2.60
2023-05-04T23:49:28.849Z,3.00
2023-05-04T23:51:56.236Z,2.73
2023-05-04T23:54:23.600Z,2.90
2023-05-04T23:56:51.239Z,3.00
2023-05-04T23:59:18.364Z,2.90
